Time;durP1;ratioP1;P1;durP2;ratioP2;P2;SDS_P1;SDS_P2;PMS_P1;PMS_P2;Temp;Humidity;BMP_temperature;BMP_pressure;BME280_temperature;BME280_humidity;BME280_pressure;Samples;Min_cycle;Max_cycle;Signal;HPM_P1;HPM_P2
2023/05/03 00:01:34;;;;;;;2.25;1.33;;;7.10;1.00;;;;;;20550130;28;20084;-43
2023/05/03 00:11:35;;;;;;;3.92;1.08;;;7.00;1.00;;;;;;20563373;28;20051;-43
2023/05/03 00:21:36;;;;;;;3.33;1.08;;;6.90;1.00;;;;;;20563284;28;20038;-43
2023/05/03 00:31:37;;;;;;;1.70;0.90;;;6.80;1.00;;;;;;20566468;28;20453;-43
2023/05/03 00:41:38;;;;;;;2.42;1.05;;;6.70;1.00;;;;;;20562820;28;21393;-43
2023/05/03 00:51:41;;;;;;;2.80;0.75;;;6.60;1.00;;;;;;20561666;28;20057;-41
2023/05/03 01:01:42;;;;;;;4.05;1.30;;;6.60;1.00;;;;;;20559030;28;20049;-41
2023/05/03 01:12:07;;;;;;;4.38;1.80;;;6.50;1.00;;;;;;20559624;28;21591;-41
2023/05/03 01:22:21;;;;;;;2.58;0.82;;;6.50;1.00;;;;;;20559086;28;20469;-41
2023/05/03 01:32:31;;;;;;;3.40;1.30;;;6.40;1.00;;;;;;20558243;28;20038;-42
2023/05/03 01:42:35;;;;;;;2.58;1.00;;;6.40;1.00;;;;;;20558529;28;20527;-42
2023/05/03 01:52:36;;;;;;;2.38;0.93;;;6.30;1.00;;;;;;20549751;28;20129;-41
2023/05/03 02:02:37;;;;;;;4.15;1.33;;;6.20;1.00;;;;;;20554957;28;20498;-42
2023/05/03 02:12:42;;;;;;;3.20;1.63;;;6.10;1.00;;;;;;20550683;28;20454;-41
2023/05/03 02:22:43;;;;;;;2.63;1.00;;;6.00;1.00;;;;;;20537328;28;20045;-41
2023/05/03 02:32:44;;;;;;;2.20;1.08;;;5.90;1.00;;;;;;20545490;28;20045;-41
2023/05/03 02:42:45;;;;;;;5.57;0.98;;;6.00;1.00;;;;;;20537874;28;20507;-42
2023/05/03 02:52:46;;;;;;;2.85;1.52;;;6.10;1.00;;;;;;20533367;28;20034;-41
2023/05/03 03:02:48;;;;;;;2.08;1.25;;;6.10;1.00;;;;;;20546144;28;20054;-42
2023/05/03 03:12:49;;;;;;;2.42;1.15;;;6.10;1.00;;;;;;20541776;28;20035;-41
2023/05/03 03:22:50;;;;;;;2.67;1.15;;;5.90;1.00;;;;;;20532783;28;20043;-41
2023/05/03 03:32:51;;;;;;;6.40;1.30;;;5.90;1.00;;;;;;20542182;28;20111;-42
2023/05/03 03:42:52;;;;;;;5.18;1.67;;;5.70;1.00;;;;;;20463990;28;20584;-42
2023/05/03 03:52:54;;;;;;;2.92;1.15;;;5.60;1.00;;;;;;20453638;28;20458;-42
2023/05/03 04:02:55;;;;;;;4.47;2.35;;;5.50;1.00;;;;;;20485667;28;20403;-41
2023/05/03 04:12:56;;;;;;;3.75;1.30;;;5.30;1.00;;;;;;20462054;28;20043;-42
2023/05/03 04:22:57;;;;;;;2.42;1.10;;;5.30;1.00;;;;;;20459403;28;21075;-42
2023/05/03 04:32:59;;;;;;;3.95;1.50;;;5.30;1.00;;;;;;20461961;28;20050;-42
2023/05/03 04:43:00;;;;;;;2.95;1.30;;;5.20;1.00;;;;;;20462757;28;20047;-42
2023/05/03 04:53:01;;;;;;;2.35;1.20;;;5.10;1.00;;;;;;20477484;28;20280;-42
2023/05/03 05:03:02;;;;;;;3.17;1.20;;;5.20;1.00;;;;;;20498327;28;20433;-43
2023/05/03 05:13:03;;;;;;;2.70;1.15;;;5.30;1.00;;;;;;20495514;28;20038;-42
2023/05/03 05:23:05;;;;;;;2.90;1.13;;;5.40;1.00;;;;;;20474472;28;20046;-43
2023/05/03 05:33:06;;;;;;;4.13;1.70;;;5.90;1.00;;;;;;20476941;28;20035;-43
2023/05/03 05:43:08;;;;;;;2.78;1.60;;;6.40;1.00;;;;;;20483220;28;20054;-43
2023/05/03 05:53:09;;;;;;;3.30;1.38;;;6.90;1.00;;;;;;20504083;28;20446;-43
2023/05/03 06:03:10;;;;;;;5.13;0.90;;;7.40;1.00;;;;;;20482958;28;20042;-43
2023/05/03 06:13:11;;;;;;;3.15;0.90;;;7.80;1.00;;;;;;20470297;28;21663;-43
2023/05/03 06:23:12;;;;;;;3.03;1.30;;;8.00;1.00;;;;;;20466898;28;20566;-43
2023/05/03 06:33:14;;;;;;;3.75;1.40;;;8.40;1.00;;;;;;20492320;28;20499;-43
2023/05/03 06:43:15;;;;;;;2.55;1.10;;;8.70;1.00;;;;;;20486300;28;20418;-42
2023/05/03 06:53:16;;;;;;;6.18;2.35;;;8.80;1.00;;;;;;20494902;28;20043;-43
2023/05/03 07:03:17;;;;;;;2.42;0.80;;;9.00;1.00;;;;;;20490223;28;20047;-43
2023/05/03 07:13:18;;;;;;;2.00;1.00;;;9.20;1.00;;;;;;20495476;28;22138;-43
2023/05/03 07:23:19;;;;;;;1.83;0.80;;;9.40;1.00;;;;;;20554469;28;20384;-43
2023/05/03 07:33:20;;;;;;;4.93;0.93;;;9.60;1.00;;;;;;20554961;28;20045;-43
2023/05/03 07:43:22;;;;;;;3.70;1.40;;;9.50;1.00;;;;;;20560253;28;20053;-42
2023/05/03 07:53:23;;;;;;;2.38;0.60;;;9.50;1.00;;;;;;20557499;28;20038;-42
2023/05/03 08:03:24;;;;;;;1.98;0.68;;;9.90;1.00;;;;;;20556405;28;20046;-43
2023/05/03 08:13:25;;;;;;;2.08;0.77;;;10.00;1.00;;;;;;20540121;28;20050;-43
2023/05/03 08:23:26;;;;;;;4.30;1.10;;;10.20;1.00;;;;;;20550111;28;20049;-43
2023/05/03 08:33:27;;;;;;;4.07;1.48;;;10.50;1.00;;;;;;20558325;28;20039;-43
2023/05/03 08:43:30;;;;;;;2.75;1.00;;;10.80;1.00;;;;;;20557739;28;20274;-43
2023/05/03 08:53:32;;;;;;;2.67;1.42;;;11.10;1.00;;;;;;20563500;28;20053;-43
2023/05/03 09:03:34;;;;;;;1.95;1.08;;;11.50;1.00;;;;;;20565274;28;20391;-43
2023/05/03 09:13:35;;;;;;;2.30;0.80;;;11.70;1.00;;;;;;20568595;28;20042;-44
2023/05/03 09:23:36;;;;;;;1.52;0.73;;;12.30;1.00;;;;;;20551935;28;20039;-43
2023/05/03 09:33:37;;;;;;;2.95;1.20;;;12.50;1.00;;;;;;20557724;28;20045;-43
2023/05/03 09:43:51;;;;;;;3.15;0.90;;;12.80;1.00;;;;;;20553885;28;21572;-43
2023/05/03 09:53:55;;;;;;;3.42;0.82;;;13.10;1.00;;;;;;20559768;28;20487;-44
2023/05/03 10:04:00;;;;;;;1.42;0.60;;;13.50;1.00;;;;;;20498674;28;20401;-43
2023/05/03 10:14:04;;;;;;;4.13;0.95;;;13.90;1.00;;;;;;20497394;28;20042;-43
2023/05/03 10:24:11;;;;;;;3.97;1.17;;;13.80;1.00;;;;;;20492690;28;20043;-43
2023/05/03 10:34:23;;;;;;;1.83;0.90;;;14.00;1.00;;;;;;20471130;28;20044;-43
2023/05/03 10:44:47;;;;;;;2.75;0.90;;;14.30;1.00;;;;;;20459019;28;20043;-44
2023/05/03 10:54:48;;;;;;;2.95;0.88;;;14.40;1.00;;;;;;20477857;28;20759;-44
2023/05/03 11:04:51;;;;;;;4.53;0.93;;;14.90;1.00;;;;;;20480805;28;20137;-43
2023/05/03 11:14:52;;;;;;;2.15;1.00;;;15.00;1.00;;;;;;20481797;28;20501;-43
2023/05/03 11:24:55;;;;;;;2.63;1.35;;;15.60;1.00;;;;;;20490735;28;20495;-43
2023/05/03 11:34:58;;;;;;;5.85;1.90;;;15.70;1.00;;;;;;20483863;28;20081;-43
2023/05/03 11:45:00;;;;;;;2.85;1.40;;;16.10;1.00;;;;;;20460788;28;20145;-43
2023/05/03 11:55:01;;;;;;;2.63;1.00;;;16.20;1.00;;;;;;20471287;28;20210;-41
2023/05/03 12:05:05;;;;;;;4.82;1.58;;;16.50;1.00;;;;;;20475835;28;20304;-41
2023/05/03 12:15:11;;;;;;;3.77;1.30;;;16.60;1.00;;;;;;20482901;28;20035;-41
2023/05/03 12:25:12;;;;;;;2.65;1.00;;;17.20;1.00;;;;;;20468274;28;20427;-41
2023/05/03 12:35:17;;;;;;;7.00;1.77;;;17.20;1.00;;;;;;20464473;28;21144;-41
2023/05/03 12:45:19;;;;;;;2.90;1.30;;;17.30;1.00;;;;;;20492383;28;20043;-41
2023/05/03 12:55:20;;;;;;;3.08;1.50;;;17.40;1.00;;;;;;20452261;28;20040;-41
2023/05/03 13:05:22;;;;;;;3.08;1.38;;;18.10;1.00;;;;;;20455808;28;20039;-41
2023/05/03 13:15:24;;;;;;;4.22;1.30;;;18.70;1.00;;;;;;20460693;28;20128;-41
2023/05/03 13:25:25;;;;;;;3.63;1.00;;;18.90;1.00;;;;;;20473728;28;20039;-42
2023/05/03 13:35:26;;;;;;;1.90;1.00;;;18.70;1.00;;;;;;20480032;28;20042;-42
2023/05/03 13:45:28;;;;;;;7.63;1.20;;;18.90;1.00;;;;;;20478153;28;20054;-41
2023/05/03 13:55:30;;;;;;;1.98;1.00;;;19.00;1.00;;;;;;20479484;28;20936;-42
2023/05/03 14:05:31;;;;;;;3.40;1.35;;;18.60;1.00;;;;;;20476677;28;20359;-41
2023/05/03 14:15:37;;;;;;;2.55;1.00;;;18.30;1.00;;;;;;20482191;28;20042;-41
2023/05/03 14:25:39;;;;;;;2.60;1.33;;;18.00;1.00;;;;;;20473139;28;20550;-41
2023/05/03 14:35:40;;;;;;;5.38;1.63;;;17.50;1.00;;;;;;20476266;28;20130;-43
2023/05/03 14:45:41;;;;;;;3.92;1.60;;;17.20;1.00;;;;;;20504034;28;20046;-40
2023/05/03 14:55:42;;;;;;;3.83;1.27;;;17.10;1.00;;;;;;20491659;28;20541;-40
2023/05/03 15:05:48;;;;;;;3.20;1.50;;;16.90;1.00;;;;;;20484594;28;20503;-43
2023/05/03 15:15:49;;;;;;;2.97;2.00;;;17.10;1.00;;;;;;20464484;28;20038;-43
2023/05/03 15:25:50;;;;;;;3.38;1.67;;;16.90;1.00;;;;;;20480643;28;20057;-43
2023/05/03 15:35:51;;;;;;;4.30;1.45;;;16.70;1.00;;;;;;20427983;28;20059;-43
2023/05/03 15:45:52;;;;;;;5.55;1.70;;;16.70;1.00;;;;;;20455771;28;20062;-43
2023/05/03 15:55:56;;;;;;;3.95;1.50;;;16.70;1.00;;;;;;20452193;28;21562;-43
2023/05/03 16:05:57;;;;;;;3.63;1.90;;;16.40;1.00;;;;;;20446372;28;20384;-43
2023/05/03 16:15:59;;;;;;;3.85;2.60;;;16.40;1.00;;;;;;20471536;28;20039;-43
2023/05/03 16:26:10;;;;;;;3.65;1.98;;;16.20;1.00;;;;;;20457983;28;20104;-43
2023/05/03 16:36:11;;;;;;;3.88;2.00;;;16.10;1.00;;;;;;20493847;28;20364;-43
2023/05/03 16:46:12;;;;;;;3.92;2.00;;;15.90;1.00;;;;;;20462257;28;20514;-43
2023/05/03 16:56:14;;;;;;;4.75;2.67;;;15.60;1.00;;;;;;20437300;28;20039;-43
2023/05/03 17:06:17;;;;;;;4.63;2.20;;;15.50;1.00;;;;;;20480251;28;20055;-43
2023/05/03 17:16:20;;;;;;;5.05;1.92;;;15.30;1.00;;;;;;20482825;28;20126;-43
2023/05/03 17:26:21;;;;;;;4.15;1.90;;;15.10;1.00;;;;;;20479314;28;20047;-42
2023/05/03 17:36:22;;;;;;;4.25;1.80;;;15.00;1.00;;;;;;20491360;28;20049;-42
2023/05/03 17:46:23;;;;;;;2.90;1.65;;;14.90;1.00;;;;;;20454557;28;20486;-42
2023/05/03 17:56:24;;;;;;;4.28;1.58;;;14.80;1.00;;;;;;20457768;28;20108;-42
2023/05/03 18:06:26;;;;;;;4.45;2.17;;;14.50;1.00;;;;;;20478777;28;20138;-42
2023/05/03 18:16:27;;;;;;;3.92;1.98;;;14.30;1.00;;;;;;20481593;28;20051;-42
2023/05/03 18:26:29;;;;;;;6.57;1.70;;;14.10;1.00;;;;;;20483002;28;20413;-42
2023/05/03 18:36:30;;;;;;;5.05;2.13;;;13.90;1.00;;;;;;20489917;28;20470;-41
2023/05/03 18:46:31;;;;;;;3.03;1.70;;;13.80;1.00;;;;;;20489766;28;20047;-41
2023/05/03 18:56:32;;;;;;;13.00;2.85;;;13.70;1.00;;;;;;20477142;28;20483;-42
2023/05/03 19:06:33;;;;;;;6.32;1.92;;;13.50;1.00;;;;;;20467654;28;20142;-42
2023/05/03 19:16:34;;;;;;;4.00;2.08;;;13.30;1.00;;;;;;20471374;28;20038;-42
2023/05/03 19:26:35;;;;;;;4.80;1.83;;;13.10;1.00;;;;;;20463810;28;20043;-42
2023/05/03 19:36:37;;;;;;;6.10;2.13;;;12.90;1.00;;;;;;20477006;28;20035;-42
2023/05/03 19:46:39;;;;;;;5.65;2.60;;;12.80;1.00;;;;;;20492786;28;20048;-41
2023/05/03 19:56:40;;;;;;;6.38;2.47;;;12.70;1.00;;;;;;20499122;28;20260;-42
2023/05/03 20:06:41;;;;;;;4.80;2.50;;;12.50;1.00;;;;;;20474872;28;20421;-42
2023/05/03 20:16:42;;;;;;;8.00;3.03;;;12.60;1.00;;;;;;20540758;28;20038;-42
2023/05/03 20:26:43;;;;;;;5.03;2.35;;;12.40;1.00;;;;;;20570516;28;20046;-42
2023/05/03 20:36:44;;;;;;;5.07;2.65;;;12.20;1.00;;;;;;20569103;28;20747;-42
2023/05/03 20:46:45;;;;;;;7.50;2.63;;;12.10;1.00;;;;;;20563612;28;20713;-42
2023/05/03 20:56:46;;;;;;;4.60;2.42;;;11.90;1.00;;;;;;20575243;28;20503;-42
2023/05/03 21:06:48;;;;;;;6.43;2.00;;;11.70;1.00;;;;;;20569615;28;20080;-42
2023/05/03 21:16:49;;;;;;;4.30;2.17;;;11.60;1.00;;;;;;20584509;28;20479;-42
2023/05/03 21:26:50;;;;;;;5.28;1.85;;;11.60;1.00;;;;;;20587010;28;20054;-44
2023/05/03 21:36:51;;;;;;;5.55;2.10;;;11.40;1.00;;;;;;20578893;28;20049;-42
2023/05/03 21:46:52;;;;;;;5.18;2.78;;;11.20;1.00;;;;;;20572318;28;20046;-43
2023/05/03 21:56:53;;;;;;;5.22;2.13;;;11.00;1.00;;;;;;20572839;28;20541;-42
2023/05/03 22:06:55;;;;;;;4.22;2.33;;;10.90;1.00;;;;;;20584705;28;20164;-43
2023/05/03 22:16:56;;;;;;;4.70;2.25;;;10.70;1.00;;;;;;20512859;28;20043;-42
2023/05/03 22:26:58;;;;;;;10.38;2.63;;;10.60;1.00;;;;;;20496121;28;20054;-43
2023/05/03 22:36:59;;;;;;;6.70;2.50;;;10.40;1.00;;;;;;20468993;28;20051;-42
2023/05/03 22:47:00;;;;;;;7.13;2.17;;;10.30;1.00;;;;;;20471794;28;20044;-43
2023/05/03 22:57:01;;;;;;;5.10;2.60;;;10.30;1.00;;;;;;20479077;28;20042;-43
2023/05/03 23:07:02;;;;;;;4.60;2.35;;;10.20;1.00;;;;;;20475145;28;20086;-44
2023/05/03 23:17:03;;;;;;;4.10;2.40;;;10.10;1.00;;;;;;20470736;28;20499;-43
2023/05/03 23:27:05;;;;;;;5.18;2.50;;;10.00;1.00;;;;;;20487447;28;20054;-43
2023/05/03 23:37:06;;;;;;;5.88;2.78;;;9.90;1.00;;;;;;20480841;28;20044;-44
2023/05/03 23:47:07;;;;;;;4.25;2.28;;;9.90;1.00;;;;;;20479616;28;20050;-42
2023/05/03 23:57:08;;;;;;;9.85;3.03;;;9.80;1.00;;;;;;20485452;28;20371;-45
